Loisir ou Compétition : Rejoignez un Club de la Fédération

Résultats

LE TABAGNOZ

LES ROUSSES

GS Mixte

Jury de Compétition

Délégué Technique :
jacky ROUSSEAUX ()
Arbitre :
 
Assistant :
 
Dir. Epreuve :
Nicole BARGOT ()

Caractéristiques de la Piste

Piste :
LE TABAGNOZ
Départ :
1450
Arrivée :
1200
Dénivelé :
250
Homologation :
1919/02/02

Manche 1

Nombre de Portes :
26
Heure de Départ :
9h30
Traceur :
George BUSSOD ()
Ouvreurs A :
Willy FUGUAIN ()
Ouvreurs B :
Maxime GUILLON ()
Ouvreurs C :
 
Ouvreurs D :
 
Ouvreurs E :
 
Temps :
beau
Neige :
dure

Manche 2

Nombre de Portes :
26
Heure de Départ :
12h15
Traceur :
George BUSSOD ()
Ouvreurs A :
Willy FUGUAIN ()
Ouvreurs B :
Maxime GUILLON ()
Ouvreurs C :
 
Ouvreurs D :
 
Ouvreurs E :
 
Température Départ :
-15
Température Arrivée :
-12

Pénalité Appliquée :
 

Catégorie :
*
Clt Dos Clt/Cat Code An Nom Prénom Com Club Tps M1 Tps M2 Tps Tot Pts
Classés
1 227 1/Ben FFS2292873 1991 VANDEL ARNAUD MJ BOIS D'AMONT 48.10 48.34 1:36.44
2 223 2/Ben FFS2292606 1991 MOREL JEAN ANTOINE MJ SC MORBIER 48.30 48.15 1:36.45
3 198 3/Ben FFS2261032 1991 BERTHET CLEMENT MJ SKI ROUSSES 49.00 49.79 1:38.79
4 179 1/Ben FFS2322653 1991 BUFFARD ELODIE MJ US CHAUMERAN 49.39 49.59 1:38.98
5 207 4/Ben FFS2261129 1991 OFFNER MARC MJ SC MORBIER 50.64 49.58 1:40.22
6 180 2/Ben FFS2322635 1991 ARDIET FLORINE MJ SKI ROUSSES 50.32 50.44 1:40.76
7 235 5/Ben FFS2261131 1991 LAMY AUGUSTE MJ SKI ROUSSES 50.93 50.23 1:41.16
8 219 6/Ben FFS2292425 1992 MERRANT ANTOINE MJ THOIRY 50.37 50.84 1:41.21
9 220 7/Ben FFS2352785 1991 BAILLY BASIN LUDOVIC MJ SC MORBIER 50.97 50.45 1:41.42
10 191 8/Ben FFS2322890 1992 CRAWFORD SCOTT MJ ST LAURENT 50.96 51.49 1:42.45
11 236 9/Ben FFS2176554 1991 SCHWINN FLORIAN MJ PREMANON SC 52.09 50.95 1:43.04
12 172 3/Ben FFS2261030 1991 EHRESMANN TATIANA MJ SKI ROUSSES 51.00 52.12 1:43.12
13 212 10/Ben FFS2261138 1991 BLARDONE ANTONIN MJ SC MORBIER 51.88 51.46 1:43.34
14 200 11/Ben FFS2292518 1991 GERDIL MARGUERON MAXIME MJ SKI ROUSSES 51.64 52.41 1:44.05
15 185 4/Ben FFS2292517 1991 PAGET BLANC CHLOE MJ SKI ROUSSES 51.62 52.57 1:44.19
16 143 1/Pou FFS2322734 1993 DOURIAUT CHARLY MJ SC MORBIER 51.77 52.46 1:44.23
17 183 5/Ben FFS2292516 1991 CRETIN MAITENAZ ELYSE MJ SKI ROUSSES 51.88 52.51 1:44.39
18 233 12/Ben FFS2322654 1992 BUFFARD GUILLAUME MJ US CHAUMERAN 51.60 52.85 1:44.45
19 197 13/Ben FFS2260876 1992 GEERAERT THIBAULT MJ THOIRY 52.39 52.50 1:44.89
20 193 14/Ben FFS2260934 1992 HANSSLER LUIS MJ GEX 53.05 52.28 1:45.33
21 228 15/Ben FFS2160562 1991 COUDERT VALENTIN MJ CROZET 52.40 53.44 1:45.84
22 188 6/Ben FFS2602114 1992 BENOIT GONIN PAULINE MJ SC MORBIER 52.80 53.46 1:46.26
23 234 16/Ben FFS2260913 1992 LEMAIRE THEO MJ GEX 53.32 53.06 1:46.38
24 201 17/Ben FFS2227397 1991 BOBBINK FELIX MJ THOIRY 53.92 52.81 1:46.73
25 155 2/Pou FFS2322627 1993 HERBILLON JOHAN MJ SKI ROUSSES 52.79 53.96 1:46.75
26 231 18/Ben FFS2292523 1991 TREIBER BASTIEN MJ ST LAURENT 52.73 54.04 1:46.77
27 124 3/Pou FFS2260942 1993 HEMMER GUILLAUME MJ THOIRY 53.77 53.17 1:46.94
28 202 19/Ben FFS2260885 1992 LEBLOND MAXIME MJ THOIRY 54.07 53.03 1:47.10
29 226 20/Ben FFS2322637 1992 LACROIX JONATHAN MJ SKI ROUSSES 53.82 53.35 1:47.17
30 225 21/Ben FFS2322645 1991 MONNIER CLEMENT MJ SKI ROUSSES 53.40 54.25 1:47.65
31 232 22/Ben FFS2260863 1992 ROUX GUILLAUME MJ SKI ROUSSES 53.34 54.32 1:47.66
32 130 4/Pou FFS2613375 1994 CRETIN EDDY MJ BOIS D'AMONT 53.85 54.57 1:48.42
33 129 5/Pou FFS2322522 1994 PAGEL HENRICK MJ GEX 54.09 54.40 1:48.49
34 126 6/Pou FFS2322651 1993 PONARD WILLY MJ US CHAUMERAN 54.07 54.49 1:48.56
35 166 7/Pou FFS2227401 1993 COLIN JULIEN MJ THOIRY 54.73 53.86 1:48.59
36 150 8/Pou FFS2352454 1993 BARATCABAL CHARLES MJ DIVONNE 55.09 53.91 1:49.00
36 196 23/Ben FFS2292277 1992 CRETIN PAUL MJ BOIS D'AMONT 54.31 54.69 1:49.00
38 112 1/Pou FFS2261435 1993 DUFRESNE CAMILLE MJ DIVONNE 54.30 54.93 1:49.23
39 54 1/Mic FFS2602202 1995 MALFROY LUCIEN MJ US CHAUMERAN 54.31 55.20 1:49.51
40 149 9/Pou FFS2602208 1994 PERRIN VICTOR MJ US CHAUMERAN 55.02 54.68 1:49.70
41 224 24/Ben FFS2261020 1992 BERTHET NICOLAS MJ SKI ROUSSES 55.57 54.35 1:49.92
42 70 2/Mic FFS2602199 1995 JACQUEMIN EDOUARD MJ US CHAUMERAN 54.04 55.97 1:50.01
43 134 10/Pou FFS2261434 1993 CLAPIER THOMAS MJ DIVONNE 54.32 55.97 1:50.29
44 115 2/Pou FFS2352671 1993 BOTTAGISI MANON MJ SKI ROUSSES 54.24 56.07 1:50.31
45 176 7/Ben FFS2260875 1992 GEERAERT ADELINE MJ THOIRY 55.34 55.26 1:50.60
46 111 3/Pou FFS2601039 1993 MONNIER CAMILLE MJ SKI ROUSSES 55.43 55.20 1:50.63
47 217 25/Ben FFS2260865 1992 GIROUD YANN MJ DIVONNE 54.82 55.88 1:50.70
48 181 8/Ben FFS2322624 1992 GIRARD AMELIE MJ SKI ROUSSES 54.06 56.80 1:50.86
49 175 9/Ben FFS2261468 1991 GINDRE MARGOT MJ SKI ROUSSES 55.66 55.30 1:50.96
50 109 4/Pou FFS2352942 1993 BOURGEOIS AURELIE MJ ST LAURENT 55.15 55.85 1:51.00
51 145 11/Pou FFS2352484 1993 HUMBERT PIERRICK MJ GEX 55.02 56.18 1:51.20
52 213 26/Ben FFS2601043 1991 VIEILLE GIRARDET ALEXIS MJ SKI ROUSSES 55.60 55.67 1:51.27
53 119 5/Pou FFS2322509 1993 ARNAUD MARION MJ DIVONNE 55.39 56.49 1:51.88
54 206 27/Ben FFS2322738 1992 CAT BLONDEAU ADRIEN MJ SC MORBIER 56.10 55.87 1:51.97
55 101 6/Pou FFS2352673 1993 BERTHET HELENE MJ SKI ROUSSES 55.32 56.72 1:52.04
55 159 12/Pou FFS2605152 1993 VUILLET ROMAIN MJ SC MORBIER 55.78 56.26 1:52.04
57 209 28/Ben FFS2352490 1992 DAUDE ULYSSE MJ GEX 56.85 55.36 1:52.21
58 218 29/Ben FFS2603039 1992 KOTAMAKI LARI MJ THOIRY 56.31 56.15 1:52.46
59 211 30/Ben FFS2352939 1992 LOVISA KEVIN MJ ST LAURENT 56.64 56.07 1:52.71
60 85 3/Mic FFS2601041 1995 PAGET BLANC LEO MJ SKI ROUSSES 55.62 57.43 1:53.05
61 152 13/Pou FFS2292367 1994 HANSSLER BENEDIKT MJ GEX 56.47 56.71 1:53.18
62 106 7/Pou FFS2260862 1993 TOURNIER MARIE MJ SKI ROUSSES 56.88 56.74 1:53.62
63 169 14/Pou FFS2292452 1993 DUMONT GIRARD MARC MJ DIVONNE 56.50 57.20 1:53.70
64 139 15/Pou FFS2601828 1993 VIEILLE GIRARDET THOMAS MJ SKI ROUSSES 56.38 57.33 1:53.71
65 170 10/Ben FFS2322507 1991 BUCHER HARMONIE MJ DIVONNE 56.30 57.47 1:53.77
66 199 31/Ben FFS2352672 1992 CURTY LUCAS MJ SKI ROUSSES 57.94 56.03 1:53.97
67 76 4/Mic FFS2322473 1995 JOUDRAIN THEO MJ THOIRY 58.38 55.91 1:54.29
68 158 16/Pou FFS2352674 1994 GIRARD ADRIEN MJ SKI ROUSSES 57.18 57.17 1:54.35
69 146 17/Pou FFS2600857 1994 BAILLY SALINS GUILLAUME MJ SC MORBIER 57.87 57.16 1:55.03
70 96 8/Pou FFS2605563 1993 QUITTET LEA MJ SKI ROUSSES 57.67 57.55 1:55.22
71 142 18/Pou FFS2292604 1993 LAMY ARSENE MJ SKI ROUSSES 57.98 57.43 1:55.41
72 71 5/Mic FFS2618429 1995 TOUCHE THEO MJ SKI ROUSSES 57.70 57.82 1:55.52
73 186 11/Ben FFS2322515 1991 BARBIER PAULINE MJ DIVONNE 50.20 1:05.36 1:55.56
74 222 32/Ben FFS2292605 1992 MONNERET MATTHIEU MJ SC MORBIER 58.57 57.18 1:55.75
75 157 19/Pou FFS2322652 1993 BEAUD PIERRE MJ US CHAUMERAN 57.12 58.69 1:55.81
76 171 12/Ben FFS2292612 1992 MONTALTI ASTRID MJ SKI ROUSSES 57.42 58.43 1:55.85
77 154 20/Pou FFS2352781 1994 LEPEULE PIERRE JOANY MJ SC MORBIER 57.93 58.01 1:55.94
78 205 33/Ben FFS2322448 1992 JACQUEMIN GUILLAUME CHARL MJ MIJOUX 58.01 58.14 1:56.15
79 137 21/Pou FFS2352676 1994 ROUX STEPHANE MJ SKI ROUSSES 57.31 58.89 1:56.20
80 108 9/Pou FFS2322477 1993 GOUDET LIZA MJ CROZET 58.01 58.78 1:56.79
81 77 6/Mic FFS2601508 1996 HERNANDEZ HUGO MJ MIJOUX 58.18 59.03 1:57.21
82 153 22/Pou FFS2292454 1993 DUFOURCQ ARNAUD MJ DIVONNE 58.73 58.88 1:57.61
83 105 10/Pou FFS2322516 1993 BARBIER MARJORIE MJ DIVONNE 57.94 1:00.04 1:57.98
84 86 7/Mic FFS2352496 1995 BOUVRY ALBAN MJ GEX 59.33 59.68 1:59.01
85 122 11/Pou FFS2352775 1994 OFFNER MYRIAM MJ SC MORBIER 58.73 1:00.62 1:59.35
86 65 8/Mic FFS2322519 1995 NOURRISSE JEFF MJ GEX 59.77 59.72 1:59.49
87 214 34/Ben FFS2601071 1992 FOLLET ANTOINE MJ SC LIZON 59.76 59.85 1:59.61
88 102 12/Pou FFS2260873 1993 RENDU PAULINE MJ GEX 59.20 1:00.67 1:59.87
89 195 35/Ben FFS2615806 1992 GUYOT THOMAS MJ MIJOUX 1:00.21 59.68 1:59.89
90 99 13/Pou FFS2322644 1993 GINDRE CAMILLE MJ SKI ROUSSES 58.64 1:01.30 1:59.94
91 131 23/Pou FFS7030933 1994 Adiet Remi MJ SKI ROUSSES 1:00.17 59.79 1:59.96
91 165 23/Pou FFS2603682 1993 BRET JONATHAN MJ CROZET 59.23 1:00.73 1:59.96
93 75 9/Mic FFS2602843 1995 COLIN CLEMENT MJ ST LAURENT 59.72 1:00.53 2:00.25
93 81 9/Mic FFS2322443 1995 CHAMBOST REMI MJ MIJOUX 59.91 1:00.34 2:00.25
95 95 14/Pou FFS2352453 1993 BUCHER MARYNE MJ DIVONNE 58.38 1:01.97 2:00.35
96 144 25/Pou FFS4030912 1994 Buffard Hugo MJ SKI ROUSSES 1:00.82 59.61 2:00.43
97 182 13/Ben FFS2292278 1991 VANINI MARION MJ BOIS D'AMONT 59.16 1:01.57 2:00.73
98 229 36/Ben FFS2601383 1991 DELACROIX CHARLES MJ SC LIZON 1:01.05 59.98 2:01.03
99 164 26/Pou FFS2615225 1993 CHARVET VINCENT MJ DIVONNE 1:00.75 1:00.33 2:01.08
100 72 11/Mic FFS2604973 1996 PONCET ANTOINE MJ DIVONNE 59.00 1:02.35 2:01.35
101 162 27/Pou FFS2322503 1994 PENVEN THOMAS MJ DIVONNE 59.90 1:01.63 2:01.53
102 114 15/Pou FFS2602207 1994 GRAPPE OPHELIE MJ US CHAUMERAN 1:01.04 1:00.99 2:02.03
103 110 16/Pou FFS2602203 1993 MALFROY ADELE MJ US CHAUMERAN 59.67 1:02.42 2:02.09
104 203 37/Ben FFS000004 1992 Sculfort Florian MJ EMHM/ST CLAU 1:01.21 1:01.11 2:02.32
105 5 1/Mic FFS2600880 1995 SAKAMOTO AYA MJ FERNEY 1:00.49 1:02.11 2:02.60
106 97 17/Pou FFS2352499 1994 ALBIETZ CHLOE MJ GEX 1:00.99 1:01.75 2:02.74
107 216 38/Ben FFS2601384 1991 DELACROIX DAMIEN MJ SC LIZON 1:01.26 1:01.54 2:02.80
108 156 28/Pou FFS2352443 1994 FOURNIER AXEL MJ CROZET 1:02.04 1:01.10 2:03.14
109 160 29/Pou FFS2614050 1994 TISSOT PAUL MJ US LAMOURA 1:02.48 1:01.43 2:03.91
110 100 18/Pou FFS2352483 1993 JEANNOT CHLOE MJ GEX 1:01.69 1:02.24 2:03.93
111 39 2/Mic FFS2602112 1995 NGOMA JULIETTE MJ SC MORBIER 1:01.82 1:02.25 2:04.07
112 178 14/Ben FFS2602200 1992 JACQUEMIN MATHILDE MJ US CHAUMERAN 1:01.53 1:02.60 2:04.13
113 121 19/Pou FFS2600848 1994 CALDAS LAURA MJ SC MORBIER 1:01.70 1:02.61 2:04.31
114 190 39/Ben FFS10119525 1992 Macchi Armand MJ BOIS D'AMONT 1:00.98 1:03.43 2:04.41
115 66 12/Mic FFS2614030 1996 COLIN THIBAULT MJ US LAMOURA 1:02.25 1:03.28 2:05.53
116 128 30/Pou FFS000006 1994 Facchinetti Steven MJ EMHM/ST CLAU 1:01.19 1:04.35 2:05.54
117 173 15/Ben FFS2292465 1992 GRENARD MATHILDE MJ US LAMOURA 1:02.07 1:04.32 2:06.39
118 36 3/Mic FFS2603503 1997 RYMAR ROXANNE MJ GEX 1:02.91 1:03.62 2:06.53
119 27 4/Mic FFS2352515 1996 LEBLOND PAULINE MJ THOIRY 1:02.97 1:03.69 2:06.66
120 64 13/Mic FFS2352455 1996 BARATCABAL YOURI MJ DIVONNE 1:03.34 1:03.42 2:06.76
121 43 5/Mic FFS2352918 1995 CAT MACKOWIAK MORANE MJ DIVONNE 1:02.17 1:04.73 2:06.90
122 62 14/Mic FFS2602852 19951992 CHEVALLEY ALEXANDRE MJ FERNEY 1:03.03 1:04.30 2:07.33
123 177 16/Ben FFS2601535 1992 CRETIN MARION MJ BOIS D'AMONT 54.52 1:13.00 2:07.52
124 57 15/Mic FFS2614649 1996 VUILLET HUGO MJ SC MORBIER 1:03.04 1:04.64 2:07.68
125 161 31/Pou FFS2352504 1994 HERNANDEZ TEO MJ MIJOUX 1:02.89 1:05.14 2:08.03
126 94 16/Mic FFS7030938 1995 Berthet Maxime MJ SKI ROUSSES 1:02.90 1:05.60 2:08.50
127 132 32/Pou FFS2600613 1994 ZANETTI THEO MJ SC MORBIER 1:05.14 1:03.40 2:08.54
128 23 6/Mic FFS2352520 1995 MERRANT ELISE MJ THOIRY 1:04.81 1:04.00 2:08.81
129 2 7/Mic FFS2618816 1995 BERTHET PAULINE MJ SKI ROUSSES 1:02.88 1:06.03 2:08.91
130 46 8/Mic FFS2615485 1995 ROUMY ISOLDE MJ SKI ROUSSES 1:04.14 1:05.02 2:09.16
131 192 40/Ben FFS2601037 1991 THEOBALD LOUIS MJ SKI ROUSSES 1:04.17 1:05.03 2:09.20
132 89 17/Mic FFS10131020 1995 Lovisa Steve MJ ST LAURENT 1:04.46 1:04.78 2:09.24
133 68 18/Mic FFS2614055 1995 PEREIRA ANTOINE MJ SC LIZON 1:05.47 1:03.81 2:09.28
134 187 17/Ben FFS2352777 1992 RAT ELODIE MJ SC MORBIER 1:03.09 1:06.25 2:09.34
135 117 20/Pou FFS2602211 1994 PONARD CELINE MJ US CHAUMERAN 1:03.84 1:05.58 2:09.42
136 215 41/Ben FFS000005 1992 Fabbri Joeffray MJ EMHM/ST CLAU 1:04.36 1:05.09 2:09.45
137 60 19/Mic FFS2615090 1995 ROUX ALEX MJ PREMANON SC 1:04.62 1:04.84 2:09.46
138 55 20/Mic FFS2618147 1995 BOYS PETER MJ GEX 1:05.57 1:03.91 2:09.48
139 56 21/Mic FFS2605766 1995 BUFFARD FLORIAN MJ SC MORBIER 1:05.17 1:04.63 2:09.80
140 98 21/Pou FFS 1994 DARFEUILLE CAROLINE MJ US LAMOURA 1:02.96 1:06.95 2:09.91
141 113 22/Pou FFS2292408 1994 PONCIN LAURE MJ CROZET 1:06.32 1:03.79 2:10.11
142 163 33/Pou FFS2614647 1994 BILLET ADRIEN MJ SC MORBIER 1:04.95 1:05.32 2:10.27
143 88 22/Mic FFS10120172 1995 Ratel Leny MJ PREMANON SC 1:04.66 1:05.68 2:10.34
144 91 23/Mic FFS2606201 1995 CHARRON ROMEO MJ DIVONNE 1:08.82 1:01.77 2:10.59
145 92 24/Mic FFS2352464 1996 ARBEZ MAXIME MJ FERNEY 1:05.29 1:05.85 2:11.14
146 125 34/Pou FFS2601537 1994 VANINI EDOUARD MJ BOIS D'AMONT 1:04.99 1:06.22 2:11.21
147 84 25/Mic FFS2613182 1995 VANINI LEO MJ BOIS D'AMONT 1:04.69 1:06.73 2:11.42
148 136 35/Pou FFS2613782 1994 CORDIER ANTONIN MJ SC MORBIER 1:06.37 1:05.25 2:11.62
149 59 26/Mic FFS2614614 1997 QUITTET NATHAN MJ SKI ROUSSES 1:04.65 1:07.05 2:11.70
150 41 9/Mic FFS2614651 1995 CAMELIN LISE MJ SC MORBIER 1:04.44 1:07.42 2:11.86
151 174 18/Ben FFS10119532 1992 Vandel Charline MJ BOIS D'AMONT 1:05.39 1:06.48 2:11.87
152 151 36/Pou FFS2600614 1994 ZANETTI LUCAS MJ SC MORBIER 1:06.35 1:06.03 2:12.38
153 61 27/Mic FFS2602210 1995 CHANUSSOT EVAN MJ US CHAUMERAN 1:05.26 1:07.25 2:12.51
154 80 28/Mic FFS2601601 1996 DUMONT GIRARD RAPHAEL MJ DIVONNE 1:06.06 1:06.74 2:12.80
155 40 10/Mic FFS2614650 1995 GIROD PAULINE MJ SC MORBIER 1:03.87 1:09.34 2:13.21
156 58 29/Mic FFS2618427 1996 GRAND CHAVIN JULIEN MJ SKI ROUSSES 1:05.14 1:08.17 2:13.31
157 7 11/Mic FFS2613781 1996 VINCENT LUCIE MJ SC MORBIER 1:04.15 1:09.57 2:13.72
158 30 12/Mic FFS2600611 1995 RAT PAULINE MJ SC MORBIER 1:07.28 1:06.50 2:13.78
159 14 13/Mic FFS2603095 1995 LARCHER MARINE MJ SC MORBIER 1:06.94 1:07.87 2:14.81
160 103 23/Pou FFS2617083 1993 RICHARD AURELIE MJ US LAMOURA 1:06.59 1:08.29 2:14.88
161 50 30/Mic FFS2618430 1996 TOUCHE SIMON MJ SKI ROUSSES 1:06.11 1:08.95 2:15.06
162 34 14/Mic FFS2605725 1996 GENDRIN SAMUELLE MJ DIVONNE 1:06.94 1:08.39 2:15.33
163 116 24/Pou FFS10119386 1993 Legrand Laura MJ US LAMOURA 1:08.88 1:06.82 2:15.70
164 45 15/Mic FFS2614198 1996 WOICZIK MAUD MJ FERNEY 1:08.18 1:07.59 2:15.77
165 32 16/Mic FFS2600854 1995 BORGEAIS LOUISE MJ SC MORBIER 1:08.06 1:08.06 2:16.12
166 204 42/Ben FFS2614046 1992 FALCY TRISTAN MJ BOIS D'AMONT 1:07.96 1:08.42 2:16.38
167 25 17/Mic FFS2352491 1996 PAGEL LAURA MJ GEX 1:07.97 1:08.93 2:16.90
168 189 43/Ben FFS10119489 1992 Lacroix Clement MJ BOIS D'AMONT 1:07.59 1:09.44 2:17.03
169 17 18/Mic FFS2352495 1995 MILCENT MANON MJ GEX 1:07.70 1:10.13 2:17.83
170 49 31/Mic FFS2603451 1995 MOUTON CLEMENT MJ FERNEY 1:07.70 1:10.22 2:17.92
171 47 19/Mic FFS2614884 1995 DUARTE CLARA MJ SC MORBIER 1:08.76 1:09.24 2:18.00
172 79 32/Mic FFS2352505 1995 REDEMPT ALEXIS MJ MIJOUX 1:07.57 1:10.47 2:18.04
173 1 20/Mic FFS2603452 1997 MOUTON VALENTINE MJ FERNEY 1:06.59 1:12.08 2:18.67
174 168 37/Pou FFS2603096 1994 RIFFAULT MATHIEU MJ SC MORBIER 1:10.35 1:08.57 2:18.92
175 167 38/Pou FFS2352523 1994 MICHAUD THOMAS MJ THOIRY 1:09.74 1:09.65 2:19.39
176 83 33/Mic FFS2614680 1996 GRENARD REMY MJ US LAMOURA 1:08.83 1:11.75 2:20.58
177 38 21/Mic FFS2352503 1995 BRAUD LOUISE MJ MIJOUX 1:08.81 1:11.84 2:20.65
178 118 25/Pou FFS2615297 1994 GABRY MAEVA MJ PREMANON SC 1:09.87 1:11.10 2:20.97
179 10 22/Mic FFS2600881 1997 ARBEZ TESS MJ FERNEY 1:09.74 1:11.55 2:21.29
180 3 23/Mic FFS8003182 1995 Dalloz Estelle MJ SC SOLVAY 1:08.52 1:13.31 2:21.83
181 74 34/Mic FFS000002 1995 Villon Theo MJ EMHM/ST CLAU 1:09.31 1:12.56 2:21.87
182 8 24/Mic FFS2603442 1997 ANTONSEN CHARLOTTE MJ FERNEY 1:11.16 1:10.88 2:22.04
183 33 25/Mic FFS2601579 1995 SAULCY MARION MJ SC MORBIER 1:09.47 1:12.66 2:22.13
184 15 26/Mic FFS2352463 1995 DUBOUT LOUISE MJ FERNEY 1:11.96 1:11.72 2:23.68
185 208 44/Ben FFS2618781 1992 COUSSINET NELSON MJ MIJOUX 1:13.94 1:10.15 2:24.09
186 22 27/Mic FFS2602851 1996 KEROUEDAN NOEMIE MJ FERNEY 1:13.15 1:11.00 2:24.15
187 53 35/Mic FFS0000003 1995 Capelli Thomas MJ EMHM/ST CLAU 1:10.50 1:14.08 2:24.58
188 19 28/Mic FFS2615837 1996 BEAUD MATHILDE MJ US CHAUMERAN 1:10.96 1:13.67 2:24.63
189 127 39/Pou FFS10119524 1994 Capenol Nicolas MJ BOIS D'AMONT 1:12.61 1:12.80 2:25.41
190 107 26/Pou FFS2614620 1994 THIBAL CELINE MJ SKI ROUSSES 1:13.29 1:13.33 2:26.62
191 184 19/Ben FFS2292915 1992 PENVEN CLEMENCE MJ DIVONNE 1:23.84 1:03.26 2:27.10
192 9 29/Mic FFS2617405 1995 COURVOISIER MARION MJ SC MORBIER 1:14.05 1:13.21 2:27.26
193 141 40/Pou FFS2615086 1994 ARBEZ AURELIEN MJ PREMANON SC 1:12.79 1:14.85 2:27.64
194 31 30/Mic FFS2605572 1996 ROGUET ALIZEE MJ DIVONNE 1:13.71 1:14.09 2:27.80
195 12 31/Mic FFS2615253 1995 COLLIOT JULIETTE MJ THOIRY 1:16.20 1:11.91 2:28.11
196 18 32/Mic FFS2603133 1995 COURTIEUX MAUREEN MJ FERNEY 1:14.24 1:16.00 2:30.24
197 35 33/Mic FFS2603134 1996 COURTIEUX OCEANE MJ FERNEY 1:15.73 1:15.48 2:31.21
198 93 36/Mic FFS2616431 1995 BARRIERE LUCAS MJ THOIRY 1:15.55 1:15.68 2:31.23
199 78 37/Mic FFS2603677 1997 PONCIN CLEMENT MJ CROZET 1:11.04 1:20.80 2:31.84
200 63 38/Mic FFS2604376 1995 GIRARD LUCAS MJ THOIRY 1:17.74 1:15.22 2:32.96
201 28 34/Mic FFS2615265 1995 METSELAAR INGE MJ THOIRY 1:16.05 1:17.20 2:33.25
202 87 39/Mic FFS10129787 1996 WELSELE LUCAS MJ PREMANON SC 1:20.18 1:17.15 2:37.33
203 26 35/Mic FFS101194891 1995 Lacroix Floriae MJ BOIS D'AMONT 1:17.36 1:20.68 2:38.04
204 82 40/Mic FFS2616558 1995 GIRARDON JEAN MJ FERNEY 1:22.65 1:27.80 2:50.45
205 52 41/Mic FFS2603501 1997 LEMAIRE ARTHUR MJ GEX 1:34.55 1:18.73 2:53.28
206 16 36/Mic FFS2617950 1998 SAKAMOTO EMI MJ FERNEY 1:38.63 1:27.39 3:06.02
207 11 37/Mic FFS0000001 1996 Perrin Pauline MJ US CHAUMERAN 2:31.56 1:17.88 3:49.44
Abandons
4 FFS2616560 1998 MANGEL MORGANE MJ FERNEY 1:40.78
20 FFS2352506 1995 FIBLA MARGUERITE MJ MIJOUX 1:17.40
29 FFS2602113 1995 BENOIT GONIN CLARISSE MJ SC MORBIER 1:06.33
44 FFS2601600 1996 ARNAUD MELANIE MJ DIVONNE
48 FFS2616520 1996 MOREL ARTHUR MJ SC MORBIER 1:17.48
73 FFS2618278 1995 BAILLY BASIN XAVIER MJ SC MORBIER 1:10.92
90 FFS2615328 1996 OLIVEIRA DOS SANTOS STEPH MJ SC MORBIER 1:17.47
147 FFS2618146 1993 BOYS THOMAS MJ GEX 1:02.30
221 FFS2352784 1991 VINCENT BERTRAND MJ SC MORBIER 53.59
Non partants
6 FFS2616559 1996 JOZ ROLAND NINON MJ FERNEY
13 FFS2605219 1995 GEORGEON CHLOE MJ FERNEY
21 FFS10193388 1996 AUZIAS LOLA MJ SKI ROUSSES
24 FFS101201721 1996 Ratel Melanie MJ PREMANON SC
37 FFS2605977 1996 MENIERE CHARLOTTE MJ SKI ROUSSES
42 FFS2615312 1998 DUBOUT LYDIE MJ FERNEY
51 FFS2616519 1995 MOREL JULES MJ SC MORBIER
67 FFS2603461 1995 KRAJCIK BENJAMIN MJ FERNEY
69 FFS10117197 1996 LAMOTTE Julien MJ PREMANON SC
104 FFS2614621 1994 TEN VELDE ISABELLA MJ SKI ROUSSES
120 FFS2615327 1993 GERMAIN ANAIS MJ SC MORBIER
123 FFS2600388 1994 VUILLERMET LUCAS MJ US LAMOURA
133 FFS2616667 1993 DOS SANTOS JEREMY MJ SC MORBIER
135 FFS2601072 1993 LAHSINI MEHDI MJ SC LIZON 54.27
138 FFS2600387 1994 VUILLERMET BASTIEN MJ US LAMOURA
140 FFS2603454 1994 MURE RAVAUD GUILLAUME MJ FERNEY
148 FFS2322650 1993 VANDELLE ALOIS MJ US CHAUMERAN
194 FFS2605865 1991 SBRISSA MATTHIAS MJ SKI ROUSSES
210 FFS2322646 1991 HERMANN VALENTIN MJ SKI ROUSSES
230 FFS2616666 1992 VOISIN JEREMY MJ GEX